Terminal Aerodrome Forecast
Issued by NWS Louisville, KY

Home | Current Version | Previous Version | Text Only | Print | Product List | Glossary On
Versions: 1 2 3 4 5 6 7 8 9 10 11 12 13 14 15 16 17
520
FTUS43 KLMK 060538
TAFLEX
TAF
KLEX 060538Z 0606/0706 08009KT 6SM -SHRA BKN035
     FM060700 08006KT 5SM -RA BR BKN015
     FM060900 08006KT 4SM -RA BR OVC007
     FM061300 09005KT 2SM RA BR OVC004
     FM061700 29010KT 3SM -RA BR OVC005
     FM062000 29012KT P6SM OVC012=

USA.gov is the U.S. government's official web portal to all federal, state and local government web resources and services.